sensor_id;sensor_type;location;lat;lon;timestamp;pressure;altitude;pressure_sealevel;temperature;humidity
58979;BME280;44763;50.464;30.612;2022-08-19T00:01:30;99946.45;;;20.47;76.20
58979;BME280;44763;50.464;30.612;2022-08-19T00:04:06;99953.77;;;20.46;76.13
58979;BME280;44763;50.464;30.612;2022-08-19T00:06:30;99954.86;;;20.48;75.81
58979;BME280;44763;50.464;30.612;2022-08-19T00:08:57;99952.44;;;20.54;75.58
58979;BME280;44763;50.464;30.612;2022-08-19T00:11:26;99951.12;;;20.59;75.47
58979;BME280;44763;50.464;30.612;2022-08-19T00:13:55;99954.69;;;20.65;75.15
58979;BME280;44763;50.464;30.612;2022-08-19T00:16:23;99955.53;;;20.70;74.79
58979;BME280;44763;50.464;30.612;2022-08-19T00:18:50;99957.43;;;20.72;74.61
58979;BME280;44763;50.464;30.612;2022-08-19T00:21:16;99955.53;;;20.73;74.51
58979;BME280;44763;50.464;30.612;2022-08-19T00:23:43;99955.53;;;20.70;74.35
58979;BME280;44763;50.464;30.612;2022-08-19T00:26:10;99961.20;;;20.71;74.40
58979;BME280;44763;50.464;30.612;2022-08-19T00:28:37;99956.88;;;20.70;74.40
58979;BME280;44763;50.464;30.612;2022-08-19T00:31:05;99955.76;;;20.66;74.48
58979;BME280;44763;50.464;30.612;2022-08-19T00:33:33;99954.41;;;20.64;74.53
58979;BME280;44763;50.464;30.612;2022-08-19T00:36:01;99950.86;;;20.60;74.73
58979;BME280;44763;50.464;30.612;2022-08-19T00:38:32;99946.48;;;20.54;75.14
58979;BME280;44763;50.464;30.612;2022-08-19T00:41:01;99952.44;;;20.54;74.99
58979;BME280;44763;50.464;30.612;2022-08-19T00:43:28;99951.61;;;20.51;75.40
58979;BME280;44763;50.464;30.612;2022-08-19T00:45:54;99949.99;;;20.50;75.50
58979;BME280;44763;50.464;30.612;2022-08-19T00:48:21;99955.66;;;20.46;75.71
58979;BME280;44763;50.464;30.612;2022-08-19T00:50:50;99954.82;;;20.42;75.91
58979;BME280;44763;50.464;30.612;2022-08-19T00:53:22;99954.79;;;20.37;76.15
58979;BME280;44763;50.464;30.612;2022-08-19T00:55:51;99955.30;;;20.32;76.53
58979;BME280;44763;50.464;30.612;2022-08-19T00:58:20;99962.58;;;20.26;76.80
58979;BME280;44763;50.464;30.612;2022-08-19T01:00:49;99965.23;;;20.21;77.19
58979;BME280;44763;50.464;30.612;2022-08-19T01:03:18;99973.90;;;20.18;77.30
58979;BME280;44763;50.464;30.612;2022-08-19T01:05:47;99974.15;;;20.14;77.76
58979;BME280;44763;50.464;30.612;2022-08-19T01:08:16;99975.21;;;20.13;77.61
58979;BME280;44763;50.464;30.612;2022-08-19T01:10:47;99976.56;;;20.13;77.51
58979;BME280;44763;50.464;30.612;2022-08-19T01:13:19;99977.95;;;20.18;77.43
58979;BME280;44763;50.464;30.612;2022-08-19T01:15:57;99981.22;;;20.22;77.38
58979;BME280;44763;50.464;30.612;2022-08-19T01:18:22;99978.80;;;20.23;77.08
58979;BME280;44763;50.464;30.612;2022-08-19T01:20:50;99975.01;;;20.25;77.02
58979;BME280;44763;50.464;30.612;2022-08-19T01:23:17;99969.34;;;20.23;77.14
58979;BME280;44763;50.464;30.612;2022-08-19T01:25:49;99978.22;;;20.19;77.28
58979;BME280;44763;50.464;30.612;2022-08-19T01:28:23;99980.11;;;20.16;77.21
58979;BME280;44763;50.464;30.612;2022-08-19T01:30:52;99977.38;;;20.13;77.27
58979;BME280;44763;50.464;30.612;2022-08-19T01:33:20;99977.12;;;20.15;77.18
58979;BME280;44763;50.464;30.612;2022-08-19T01:35:47;99963.08;;;20.18;77.00
58979;BME280;44763;50.464;30.612;2022-08-19T01:38:26;99969.03;;;20.20;77.13
58979;BME280;44763;50.464;30.612;2022-08-19T01:40:50;99964.13;;;20.14;77.30
58979;BME280;44763;50.464;30.612;2022-08-19T01:43:17;99962.19;;;20.07;77.50
58979;BME280;44763;50.464;30.612;2022-08-19T01:45:45;99962.43;;;20.00;77.82
58979;BME280;44763;50.464;30.612;2022-08-19T01:48:13;99959.42;;;19.97;77.90
58979;BME280;44763;50.464;30.612;2022-08-19T01:50:40;99954.27;;;19.95;77.97
58979;BME280;44763;50.464;30.612;2022-08-19T01:53:09;99948.06;;;20.00;77.99
58979;BME280;44763;50.464;30.612;2022-08-19T01:55:40;99948.36;;;20.01;77.84
58979;BME280;44763;50.464;30.612;2022-08-19T01:58:11;99941.85;;;20.02;77.84
58979;BME280;44763;50.464;30.612;2022-08-19T02:00:39;99948.36;;;20.03;77.82
58979;BME280;44763;50.464;30.612;2022-08-19T02:03:06;99947.30;;;20.05;77.70
58979;BME280;44763;50.464;30.612;2022-08-19T02:05:35;99949.72;;;20.03;77.69
58979;BME280;44763;50.464;30.612;2022-08-19T02:08:05;99954.87;;;20.02;77.87
58979;BME280;44763;50.464;30.612;2022-08-19T02:10:33;99959.17;;;20.01;77.83
58979;BME280;44763;50.464;30.612;2022-08-19T02:13:04;99954.53;;;19.96;77.86
58979;BME280;44763;50.464;30.612;2022-08-19T02:15:30;99959.63;;;19.90;78.12
58979;BME280;44763;50.464;30.612;2022-08-19T02:17:57;99962.58;;;19.86;78.81
58979;BME280;44763;50.464;30.612;2022-08-19T02:20:24;99958.64;;;19.72;79.49
58979;BME280;44763;50.464;30.612;2022-08-19T02:22:50;99957.17;;;19.56;80.34
58979;BME280;44763;50.464;30.612;2022-08-19T02:25:17;99955.77;;;19.51;80.60
58979;BME280;44763;50.464;30.612;2022-08-19T02:27:43;99954.11;;;19.48;80.91
58979;BME280;44763;50.464;30.612;2022-08-19T02:30:13;99955.70;;;19.43;81.01
58979;BME280;44763;50.464;30.612;2022-08-19T02:32:42;99961.94;;;19.44;81.12
58979;BME280;44763;50.464;30.612;2022-08-19T02:35:10;99956.53;;;19.44;81.18
58979;BME280;44763;50.464;30.612;2022-08-19T02:37:37;99963.80;;;19.43;81.34
58979;BME280;44763;50.464;30.612;2022-08-19T02:40:23;99969.25;;;19.46;81.13
58979;BME280;44763;50.464;30.612;2022-08-19T02:42:49;99971.91;;;19.43;81.25
58979;BME280;44763;50.464;30.612;2022-08-19T02:45:16;99977.56;;;19.42;81.18
58979;BME280;44763;50.464;30.612;2022-08-19T02:47:42;99972.16;;;19.42;81.20
58979;BME280;44763;50.464;30.612;2022-08-19T02:50:09;99970.31;;;19.45;81.08
58979;BME280;44763;50.464;30.612;2022-08-19T02:52:35;99963.56;;;19.48;81.04
58979;BME280;44763;50.464;30.612;2022-08-19T02:57:13;99958.47;;;19.51;80.77
58979;BME280;44763;50.464;30.612;2022-08-19T02:59:40;99967.84;;;19.41;80.86
58979;BME280;44763;50.464;30.612;2022-08-19T03:02:06;99967.29;;;19.39;80.82
58979;BME280;44763;50.464;30.612;2022-08-19T03:04:33;99965.13;;;19.38;80.80
58979;BME280;44763;50.464;30.612;2022-08-19T03:06:59;99960.28;;;19.40;80.93
58979;BME280;44763;50.464;30.612;2022-08-19T03:09:26;99958.70;;;19.47;80.71
58979;BME280;44763;50.464;30.612;2022-08-19T03:11:51;99964.17;;;19.52;80.50
58979;BME280;44763;50.464;30.612;2022-08-19T03:14:18;99965.02;;;19.55;80.18
58979;BME280;44763;50.464;30.612;2022-08-19T03:16:51;99962.80;;;19.50;80.37
58979;BME280;44763;50.464;30.612;2022-08-19T03:19:17;99970.08;;;19.49;80.49
58979;BME280;44763;50.464;30.612;2022-08-19T03:21:46;99975.78;;;19.53;80.49
58979;BME280;44763;50.464;30.612;2022-08-19T03:24:13;99974.00;;;19.63;80.17
58979;BME280;44763;50.464;30.612;2022-08-19T03:26:42;99977.15;;;19.80;79.42
58979;BME280;44763;50.464;30.612;2022-08-19T03:29:11;99975.36;;;19.96;79.09
58979;BME280;44763;50.464;30.612;2022-08-19T03:31:39;99979.02;;;20.17;78.46
58979;BME280;44763;50.464;30.612;2022-08-19T03:34:07;99975.38;;;20.38;77.96
58979;BME280;44763;50.464;30.612;2022-08-19T03:36:33;99986.90;;;20.61;76.91
58979;BME280;44763;50.464;30.612;2022-08-19T03:39:00;99979.93;;;20.78;75.92
58979;BME280;44763;50.464;30.612;2022-08-19T03:41:29;99987.84;;;20.97;75.31
58979;BME280;44763;50.464;30.612;2022-08-19T03:43:57;99993.57;;;21.11;74.02
58979;BME280;44763;50.464;30.612;2022-08-19T03:46:29;99995.53;;;21.29;73.65
58979;BME280;44763;50.464;30.612;2022-08-19T03:48:59;99996.41;;;21.52;71.96
58979;BME280;44763;50.464;30.612;2022-08-19T03:51:32;100005.09;;;21.67;71.34
58979;BME280;44763;50.464;30.612;2022-08-19T03:53:58;100000.77;;;21.84;70.51
58979;BME280;44763;50.464;30.612;2022-08-19T03:56:27;100001.84;;;22.01;69.37
58979;BME280;44763;50.464;30.612;2022-08-19T03:59:04;100008.64;;;22.11;69.12
58979;BME280;44763;50.464;30.612;2022-08-19T04:01:34;100006.47;;;22.29;68.26
58979;BME280;44763;50.464;30.612;2022-08-19T04:04:01;100009.95;;;22.50;67.62
58979;BME280;44763;50.464;30.612;2022-08-19T04:06:30;100006.34;;;22.72;66.56
58979;BME280;44763;50.464;30.612;2022-08-19T04:09:02;100002.72;;;22.95;65.84
58979;BME280;44763;50.464;30.612;2022-08-19T04:11:38;99999.89;;;23.23;64.24
58979;BME280;44763;50.464;30.612;2022-08-19T04:14:09;100006.01;;;23.44;63.64
58979;BME280;44763;50.464;30.612;2022-08-19T04:16:37;100004.48;;;23.70;62.01
58979;BME280;44763;50.464;30.612;2022-08-19T04:19:04;100005.70;;;23.88;60.95
58979;BME280;44763;50.464;30.612;2022-08-19T04:21:32;100007.41;;;24.13;60.39
58979;BME280;44763;50.464;30.612;2022-08-19T04:23:59;100010.02;;;24.23;58.71
58979;BME280;44763;50.464;30.612;2022-08-19T04:26:29;100005.54;;;24.35;58.77
58979;BME280;44763;50.464;30.612;2022-08-19T04:29:04;100006.38;;;24.62;57.43
58979;BME280;44763;50.464;30.612;2022-08-19T04:31:32;100010.05;;;24.74;56.17
58979;BME280;44763;50.464;30.612;2022-08-19T04:34:03;100002.96;;;24.73;56.45
58979;BME280;44763;50.464;30.612;2022-08-19T04:36:34;100007.69;;;24.89;56.25
58979;BME280;44763;50.464;30.612;2022-08-19T04:39:04;100014.70;;;25.17;55.08
58979;BME280;44763;50.464;30.612;2022-08-19T04:41:32;100009.57;;;25.34;54.64
58979;BME280;44763;50.464;30.612;2022-08-19T04:44:17;100013.21;;;25.46;53.61
58979;BME280;44763;50.464;30.612;2022-08-19T04:46:46;100023.63;;;25.22;54.19
58979;BME280;44763;50.464;30.612;2022-08-19T04:49:14;100021.47;;;25.19;54.41
58979;BME280;44763;50.464;30.612;2022-08-19T04:51:44;100025.09;;;25.15;54.25
58979;BME280;44763;50.464;30.612;2022-08-19T04:54:12;100018.00;;;25.14;54.61
58979;BME280;44763;50.464;30.612;2022-08-19T04:56:39;100013.30;;;25.19;54.66
58979;BME280;44763;50.464;30.612;2022-08-19T04:59:06;100015.59;;;25.34;54.17
58979;BME280;44763;50.464;30.612;2022-08-19T05:01:34;100015.64;;;25.48;53.91
58979;BME280;44763;50.464;30.612;2022-08-19T05:04:04;100015.19;;;25.59;53.99
58979;BME280;44763;50.464;30.612;2022-08-19T05:06:33;100024.34;;;25.85;52.69
58979;BME280;44763;50.464;30.612;2022-08-19T05:09:04;100017.77;;;26.05;51.93
58979;BME280;44763;50.464;30.612;2022-08-19T05:11:34;100017.31;;;26.14;51.72
58979;BME280;44763;50.464;30.612;2022-08-19T05:14:05;100020.47;;;26.21;51.33
58979;BME280;44763;50.464;30.612;2022-08-19T05:16:32;100017.80;;;26.19;50.97
58979;BME280;44763;50.464;30.612;2022-08-19T05:19:00;100022.54;;;26.13;51.28
58979;BME280;44763;50.464;30.612;2022-08-19T05:21:46;100025.13;;;26.21;51.08
58979;BME280;44763;50.464;30.612;2022-08-19T05:24:32;100022.45;;;26.18;50.99
58979;BME280;44763;50.464;30.612;2022-08-19T05:27:01;100027.66;;;26.01;51.27
58979;BME280;44763;50.464;30.612;2022-08-19T05:29:31;100028.44;;;25.85;51.80
58979;BME280;44763;50.464;30.612;2022-08-19T05:32:01;100034.05;;;25.75;51.97
58979;BME280;44763;50.464;30.612;2022-08-19T05:34:29;100032.30;;;25.65;52.41
58979;BME280;44763;50.464;30.612;2022-08-19T05:36:57;100034.12;;;25.53;52.91
58979;BME280;44763;50.464;30.612;2022-08-19T05:39:27;100031.61;;;25.57;53.14
58979;BME280;44763;50.464;30.612;2022-08-19T05:41:57;100037.02;;;25.59;52.73
58979;BME280;44763;50.464;30.612;2022-08-19T05:44:27;100039.22;;;25.60;52.96
58979;BME280;44763;50.464;30.612;2022-08-19T05:47:02;100039.95;;;25.66;53.06
58979;BME280;44763;50.464;30.612;2022-08-19T05:49:32;100038.13;;;25.77;52.81
58979;BME280;44763;50.464;30.612;2022-08-19T05:52:02;100031.08;;;25.93;51.85
58979;BME280;44763;50.464;30.612;2022-08-19T05:54:30;100031.64;;;25.92;52.00
58979;BME280;44763;50.464;30.612;2022-08-19T05:56:56;100031.95;;;25.88;52.03
58979;BME280;44763;50.464;30.612;2022-08-19T05:59:23;100026.72;;;25.73;52.03
58979;BME280;44763;50.464;30.612;2022-08-19T06:01:51;100025.64;;;25.55;52.88
58979;BME280;44763;50.464;30.612;2022-08-19T06:04:21;100035.75;;;25.54;53.06
58979;BME280;44763;50.464;30.612;2022-08-19T06:06:50;100027.56;;;25.54;53.10
58979;BME280;44763;50.464;30.612;2022-08-19T06:09:18;100029.33;;;25.64;53.26
58979;BME280;44763;50.464;30.612;2022-08-19T06:11:51;100040.07;;;25.74;52.30
58979;BME280;44763;50.464;30.612;2022-08-19T06:14:21;100041.61;;;25.64;52.04
58979;BME280;44763;50.464;30.612;2022-08-19T06:16:50;100042.77;;;25.58;52.27
58979;BME280;44763;50.464;30.612;2022-08-19T06:19:20;100037.73;;;25.68;52.36
58979;BME280;44763;50.464;30.612;2022-08-19T06:21:49;100036.11;;;26.02;51.76
58979;BME280;44763;50.464;30.612;2022-08-19T06:24:19;100041.50;;;26.07;51.06
58979;BME280;44763;50.464;30.612;2022-08-19T06:26:48;100025.16;;;25.86;52.11
58979;BME280;44763;50.464;30.612;2022-08-19T06:29:17;100025.95;;;25.86;51.79
58979;BME280;44763;50.464;30.612;2022-08-19T06:31:47;100027.66;;;25.82;51.79
58979;BME280;44763;50.464;30.612;2022-08-19T06:34:18;100026.69;;;25.75;52.23
58979;BME280;44763;50.464;30.612;2022-08-19T06:36:47;100022.23;;;25.63;53.00
58979;BME280;44763;50.464;30.612;2022-08-19T06:39:19;100020.63;;;25.78;52.36
58979;BME280;44763;50.464;30.612;2022-08-19T06:41:48;100029.36;;;25.97;51.66
58979;BME280;44763;50.464;30.612;2022-08-19T06:44:18;100030.46;;;26.12;51.56
58979;BME280;44763;50.464;30.612;2022-08-19T06:46:45;100027.72;;;26.29;50.67
58979;BME280;44763;50.464;30.612;2022-08-19T06:49:12;100030.22;;;26.11;50.82
58979;BME280;44763;50.464;30.612;2022-08-19T06:51:42;100029.98;;;25.94;51.71
58979;BME280;44763;50.464;30.612;2022-08-19T06:54:10;100028.08;;;25.92;51.69
58979;BME280;44763;50.464;30.612;2022-08-19T06:56:37;100028.17;;;25.84;52.15
58979;BME280;44763;50.464;30.612;2022-08-19T06:59:07;100028.44;;;25.85;51.96
58979;BME280;44763;50.464;30.612;2022-08-19T07:01:38;100026.78;;;25.87;52.17
58979;BME280;44763;50.464;30.612;2022-08-19T07:04:07;100025.43;;;26.03;51.88
58979;BME280;44763;50.464;30.612;2022-08-19T07:06:36;100030.67;;;26.16;50.84
58979;BME280;44763;50.464;30.612;2022-08-19T07:09:05;100035.12;;;26.12;51.09
58979;BME280;44763;50.464;30.612;2022-08-19T07:11:32;100028.52;;;26.15;51.34
58979;BME280;44763;50.464;30.612;2022-08-19T07:13:59;100032.05;;;26.16;51.13
58979;BME280;44763;50.464;30.612;2022-08-19T07:16:27;100041.52;;;26.05;51.44
58979;BME280;44763;50.464;30.612;2022-08-19T07:18:55;100042.00;;;25.93;52.29
58979;BME280;44763;50.464;30.612;2022-08-19T07:21:27;100037.17;;;25.68;52.83
58979;BME280;44763;50.464;30.612;2022-08-19T07:23:55;100036.67;;;25.47;53.06
58979;BME280;44763;50.464;30.612;2022-08-19T07:26:28;100038.64;;;25.20;53.78
58979;BME280;44763;50.464;30.612;2022-08-19T07:28:57;100039.75;;;24.97;54.19
58979;BME280;44763;50.464;30.612;2022-08-19T07:31:28;100028.23;;;24.79;54.87
58979;BME280;44763;50.464;30.612;2022-08-19T07:33:55;100026.36;;;24.77;54.91
58979;BME280;44763;50.464;30.612;2022-08-19T07:36:26;100025.83;;;24.77;55.15
58979;BME280;44763;50.464;30.612;2022-08-19T07:38:59;100030.36;;;24.84;55.59
58979;BME280;44763;50.464;30.612;2022-08-19T07:41:28;100028.92;;;24.92;55.24
58979;BME280;44763;50.464;30.612;2022-08-19T07:43:58;100030.25;;;24.95;54.96
58979;BME280;44763;50.464;30.612;2022-08-19T07:46:27;100028.31;;;24.98;55.11
58979;BME280;44763;50.464;30.612;2022-08-19T07:48:54;100027.23;;;24.96;55.36
58979;BME280;44763;50.464;30.612;2022-08-19T07:51:21;100040.92;;;24.91;55.44
58979;BME280;44763;50.464;30.612;2022-08-19T07:53:48;100050.79;;;24.87;55.51
58979;BME280;44763;50.464;30.612;2022-08-19T07:56:17;100057.19;;;24.75;56.54
58979;BME280;44763;50.464;30.612;2022-08-19T07:58:46;100049.05;;;24.72;56.42
58979;BME280;44763;50.464;30.612;2022-08-19T08:01:19;100046.36;;;24.70;56.86
58979;BME280;44763;50.464;30.612;2022-08-19T08:03:49;100053.14;;;24.72;57.11
58979;BME280;44763;50.464;30.612;2022-08-19T08:06:35;100062.67;;;24.72;56.92
58979;BME280;44763;50.464;30.612;2022-08-19T08:09:26;100048.85;;;24.66;57.51
58979;BME280;44763;50.464;30.612;2022-08-19T08:12:00;100050.66;;;24.73;56.50
58979;BME280;44763;50.464;30.612;2022-08-19T08:14:33;100046.00;;;24.76;55.98
58979;BME280;44763;50.464;30.612;2022-08-19T08:17:02;100043.55;;;24.75;56.85
58979;BME280;44763;50.464;30.612;2022-08-19T08:19:30;100038.58;;;24.82;57.57
58979;BME280;44763;50.464;30.612;2022-08-19T08:21:59;100038.53;;;24.84;57.24
58979;BME280;44763;50.464;30.612;2022-08-19T08:24:28;100037.78;;;24.79;57.37
58979;BME280;44763;50.464;30.612;2022-08-19T08:27:00;100041.39;;;24.74;58.09
58979;BME280;44763;50.464;30.612;2022-08-19T08:29:27;100043.98;;;24.84;57.68
58979;BME280;44763;50.464;30.612;2022-08-19T08:31:55;100050.14;;;24.95;57.29
58979;BME280;44763;50.464;30.612;2022-08-19T08:34:22;100054.41;;;25.04;57.06
58979;BME280;44763;50.464;30.612;2022-08-19T08:36:48;100052.66;;;25.11;56.93
58979;BME280;44763;50.464;30.612;2022-08-19T08:39:18;100063.34;;;25.07;57.06
58979;BME280;44763;50.464;30.612;2022-08-19T08:41:58;100058.82;;;25.00;57.36
58979;BME280;44763;50.464;30.612;2022-08-19T08:44:52;100065.41;;;24.94;57.54
58979;BME280;44763;50.464;30.612;2022-08-19T08:47:32;100061.56;;;24.97;57.57
58979;BME280;44763;50.464;30.612;2022-08-19T08:52:49;100058.67;;;25.34;56.49
58979;BME280;44763;50.464;30.612;2022-08-19T08:55:22;100058.67;;;25.34;56.49
58979;BME280;44763;50.464;30.612;2022-08-19T09:00:30;100058.39;;;25.55;56.09
58979;BME280;44763;50.464;30.612;2022-08-19T09:03:00;100048.20;;;25.60;55.64
58979;BME280;44763;50.464;30.612;2022-08-19T09:05:39;100045.94;;;25.65;55.23
58979;BME280;44763;50.464;30.612;2022-08-19T09:08:20;100056.34;;;25.63;55.40
58979;BME280;44763;50.464;30.612;2022-08-19T09:11:09;100053.67;;;25.60;55.32
58979;BME280;44763;50.464;30.612;2022-08-19T09:16:21;100047.20;;;25.54;55.75
58979;BME280;44763;50.464;30.612;2022-08-19T09:18:52;100047.54;;;25.50;55.75
58979;BME280;44763;50.464;30.612;2022-08-19T09:21:22;100072.77;;;25.41;56.05
58979;BME280;44763;50.464;30.612;2022-08-19T09:23:48;100044.47;;;25.35;56.40
58979;BME280;44763;50.464;30.612;2022-08-19T09:26:19;100055.05;;;25.39;56.74
58979;BME280;44763;50.464;30.612;2022-08-19T09:28:48;100056.84;;;25.49;56.86
58979;BME280;44763;50.464;30.612;2022-08-19T09:31:19;100061.92;;;25.55;56.42
58979;BME280;44763;50.464;30.612;2022-08-19T09:33:48;100059.36;;;25.61;56.43
58979;BME280;44763;50.464;30.612;2022-08-19T09:36:17;100058.63;;;25.56;56.28
58979;BME280;44763;50.464;30.612;2022-08-19T09:38:45;100070.73;;;25.50;56.73
58979;BME280;44763;50.464;30.612;2022-08-19T09:41:14;100070.69;;;25.52;56.95
58979;BME280;44763;50.464;30.612;2022-08-19T09:43:44;100077.31;;;25.49;57.21
58979;BME280;44763;50.464;30.612;2022-08-19T09:46:12;100085.00;;;25.44;57.09
58979;BME280;44763;50.464;30.612;2022-08-19T09:48:40;100098.91;;;25.45;57.27
58979;BME280;44763;50.464;30.612;2022-08-19T09:51:15;100083.47;;;25.35;57.36
58979;BME280;44763;50.464;30.612;2022-08-19T09:53:44;100119.88;;;25.25;57.65
58979;BME280;44763;50.464;30.612;2022-08-19T09:56:11;100109.03;;;25.18;57.75
58979;BME280;44763;50.464;30.612;2022-08-19T09:58:39;100091.44;;;25.08;58.32
58979;BME280;44763;50.464;30.612;2022-08-19T10:01:07;100092.29;;;25.05;58.76
58979;BME280;44763;50.464;30.612;2022-08-19T10:03:36;100083.50;;;25.11;58.96
58979;BME280;44763;50.464;30.612;2022-08-19T10:06:04;100093.70;;;25.22;59.32
58979;BME280;44763;50.464;30.612;2022-08-19T10:08:34;100099.88;;;25.33;58.50
58979;BME280;44763;50.464;30.612;2022-08-19T10:11:02;100097.48;;;25.29;58.86
58979;BME280;44763;50.464;30.612;2022-08-19T10:13:30;100090.22;;;25.19;58.95
58979;BME280;44763;50.464;30.612;2022-08-19T10:16:06;100095.53;;;25.08;59.61
58979;BME280;44763;50.464;30.612;2022-08-19T10:18:35;100090.09;;;25.05;59.87
58979;BME280;44763;50.464;30.612;2022-08-19T10:21:06;100092.58;;;25.04;59.96
58979;BME280;44763;50.464;30.612;2022-08-19T10:23:36;100098.59;;;25.03;59.97
58979;BME280;44763;50.464;30.612;2022-08-19T10:26:05;100104.84;;;25.04;59.98
58979;BME280;44763;50.464;30.612;2022-08-19T10:28:36;100097.74;;;25.05;59.86
58979;BME280;44763;50.464;30.612;2022-08-19T10:31:05;100104.80;;;25.09;59.82
58979;BME280;44763;50.464;30.612;2022-08-19T10:33:34;100112.93;;;25.12;59.79
58979;BME280;44763;50.464;30.612;2022-08-19T10:36:08;100107.71;;;25.15;59.68
58979;BME280;44763;50.464;30.612;2022-08-19T10:38:34;100112.80;;;25.22;59.26
58979;BME280;44763;50.464;30.612;2022-08-19T10:41:12;100113.28;;;25.29;59.15
58979;BME280;44763;50.464;30.612;2022-08-19T10:43:41;100104.98;;;25.39;59.11
58979;BME280;44763;50.464;30.612;2022-08-19T10:46:10;100118.81;;;25.45;58.36
58979;BME280;44763;50.464;30.612;2022-08-19T10:48:40;100108.23;;;25.41;57.60
58979;BME280;44763;50.464;30.612;2022-08-19T10:51:08;100111.06;;;25.34;57.87
58979;BME280;44763;50.464;30.612;2022-08-19T10:53:54;100129.08;;;25.32;57.17
58979;BME280;44763;50.464;30.612;2022-08-19T10:56:22;100115.50;;;25.27;56.70
58979;BME280;44763;50.464;30.612;2022-08-19T10:59:09;100120.15;;;25.27;56.98
58979;BME280;44763;50.464;30.612;2022-08-19T11:01:36;100126.69;;;25.28;56.88
58979;BME280;44763;50.464;30.612;2022-08-19T11:04:03;100120.38;;;25.30;56.09
58979;BME280;44763;50.464;30.612;2022-08-19T11:06:37;100122.27;;;25.30;56.20
58979;BME280;44763;50.464;30.612;2022-08-19T11:09:05;100126.92;;;25.29;56.58
58979;BME280;44763;50.464;30.612;2022-08-19T11:11:31;100135.34;;;25.33;56.62
58979;BME280;44763;50.464;30.612;2022-08-19T11:13:58;100124.94;;;25.37;56.67
58979;BME280;44763;50.464;30.612;2022-08-19T11:16:26;100122.39;;;25.43;56.73
58979;BME280;44763;50.464;30.612;2022-08-19T11:18:57;100153.15;;;25.49;55.96
58979;BME280;44763;50.464;30.612;2022-08-19T11:21:27;100125.59;;;25.48;55.97
58979;BME280;44763;50.464;30.612;2022-08-19T11:24:03;100131.84;;;25.51;55.44
58979;BME280;44763;50.464;30.612;2022-08-19T11:26:30;100134.00;;;25.52;55.13
58979;BME280;44763;50.464;30.612;2022-08-19T11:28:58;100136.55;;;25.45;55.56
58979;BME280;44763;50.464;30.612;2022-08-19T11:31:31;100142.58;;;25.42;55.79
58979;BME280;44763;50.464;30.612;2022-08-19T11:34:04;100142.58;;;25.42;55.57
58979;BME280;44763;50.464;30.612;2022-08-19T11:36:32;100140.41;;;25.42;55.56
58979;BME280;44763;50.464;30.612;2022-08-19T11:38:59;100132.50;;;25.43;55.72
58979;BME280;44763;50.464;30.612;2022-08-19T11:41:26;100128.98;;;25.40;56.02
58979;BME280;44763;50.464;30.612;2022-08-19T11:43:54;100154.67;;;25.36;56.33
58979;BME280;44763;50.464;30.612;2022-08-19T11:46:22;100130.45;;;25.32;56.49
58979;BME280;44763;50.464;30.612;2022-08-19T11:48:49;100131.29;;;25.30;56.49
58979;BME280;44763;50.464;30.612;2022-08-19T11:51:20;100125.55;;;25.32;56.48
58979;BME280;44763;50.464;30.612;2022-08-19T11:53:48;100127.66;;;25.37;55.26
58979;BME280;44763;50.464;30.612;2022-08-19T11:56:16;100142.11;;;25.38;54.71
58979;BME280;44763;50.464;30.612;2022-08-19T11:58:43;100131.52;;;25.34;54.71
58979;BME280;44763;50.464;30.612;2022-08-19T12:01:13;100133.19;;;25.30;54.65
58979;BME280;44763;50.464;30.612;2022-08-19T12:03:42;100143.89;;;25.26;55.00
58979;BME280;44763;50.464;30.612;2022-08-19T12:06:14;100134.02;;;25.30;55.07
58979;BME280;44763;50.464;30.612;2022-08-19T12:08:41;100134.25;;;25.34;55.28
58979;BME280;44763;50.464;30.612;2022-08-19T12:11:09;100140.75;;;25.35;55.37
58979;BME280;44763;50.464;30.612;2022-08-19T12:13:36;100150.06;;;25.34;55.22
58979;BME280;44763;50.464;30.612;2022-08-19T12:16:07;100152.34;;;25.22;55.12
58979;BME280;44763;50.464;30.612;2022-08-19T12:18:38;100157.21;;;25.03;55.77
58979;BME280;44763;50.464;30.612;2022-08-19T12:21:07;100152.20;;;24.86;56.79
58979;BME280;44763;50.464;30.612;2022-08-19T12:23:36;100146.56;;;24.78;57.38
58979;BME280;44763;50.464;30.612;2022-08-19T12:26:03;100140.62;;;24.71;57.91
58979;BME280;44763;50.464;30.612;2022-08-19T12:28:30;100151.57;;;24.65;58.32
58979;BME280;44763;50.464;30.612;2022-08-19T12:30:57;100147.59;;;24.55;58.80
58979;BME280;44763;50.464;30.612;2022-08-19T12:33:24;100142.42;;;24.48;59.27
58979;BME280;44763;50.464;30.612;2022-08-19T12:35:53;100146.02;;;24.44;59.67
58979;BME280;44763;50.464;30.612;2022-08-19T12:38:20;100139.77;;;24.43;59.77
58979;BME280;44763;50.464;30.612;2022-08-19T12:40:48;100158.28;;;24.44;59.65
58979;BME280;44763;50.464;30.612;2022-08-19T12:43:16;100157.48;;;24.41;59.89
58979;BME280;44763;50.464;30.612;2022-08-19T12:45:43;100147.48;;;24.34;59.92
58979;BME280;44763;50.464;30.612;2022-08-19T12:48:11;100148.07;;;24.28;60.28
58979;BME280;44763;50.464;30.612;2022-08-19T12:50:42;100166.33;;;24.25;60.63
58979;BME280;44763;50.464;30.612;2022-08-19T12:53:12;100170.16;;;24.21;60.55
58979;BME280;44763;50.464;30.612;2022-08-19T12:55:38;100167.53;;;24.11;60.89
58979;BME280;44763;50.464;30.612;2022-08-19T12:58:05;100157.80;;;24.00;61.53
58979;BME280;44763;50.464;30.612;2022-08-19T13:00:34;100175.81;;;23.88;61.88
58979;BME280;44763;50.464;30.612;2022-08-19T13:03:01;100177.21;;;23.75;62.23
58979;BME280;44763;50.464;30.612;2022-08-19T13:05:30;100173.73;;;23.62;62.76